sensor_id;sensor_type;location;lat;lon;timestamp;P1;durP1;ratioP1;P2;durP2;ratioP2
64543;SDS011;50936;51.660;5.616;2024-02-26T00:01:31;4.45;;;2.45;;
64543;SDS011;50936;51.660;5.616;2024-02-26T00:04:20;5.30;;;2.78;;
64543;SDS011;50936;51.660;5.616;2024-02-26T00:07:08;5.63;;;2.40;;
64543;SDS011;50936;51.660;5.616;2024-02-26T00:09:56;4.85;;;2.25;;
64543;SDS011;50936;51.660;5.616;2024-02-26T00:12:43;4.97;;;2.25;;
64543;SDS011;50936;51.660;5.616;2024-02-26T00:15:30;3.95;;;2.30;;
64543;SDS011;50936;51.660;5.616;2024-02-26T00:18:17;4.88;;;2.30;;
64543;SDS011;50936;51.660;5.616;2024-02-26T00:21:05;4.28;;;2.30;;
64543;SDS011;50936;51.660;5.616;2024-02-26T00:23:52;6.68;;;2.30;;
64543;SDS011;50936;51.660;5.616;2024-02-26T00:26:40;4.18;;;2.55;;
64543;SDS011;50936;51.660;5.616;2024-02-26T00:29:27;5.13;;;2.63;;
64543;SDS011;50936;51.660;5.616;2024-02-26T00:32:15;5.18;;;2.42;;
64543;SDS011;50936;51.660;5.616;2024-02-26T00:35:02;4.45;;;2.13;;
64543;SDS011;50936;51.660;5.616;2024-02-26T00:37:49;4.55;;;2.20;;
64543;SDS011;50936;51.660;5.616;2024-02-26T00:40:36;5.03;;;2.13;;
64543;SDS011;50936;51.660;5.616;2024-02-26T00:43:24;6.25;;;2.67;;
64543;SDS011;50936;51.660;5.616;2024-02-26T00:46:11;5.40;;;2.60;;
64543;SDS011;50936;51.660;5.616;2024-02-26T00:48:58;5.22;;;2.50;;
64543;SDS011;50936;51.660;5.616;2024-02-26T00:51:47;4.57;;;2.45;;
64543;SDS011;50936;51.660;5.616;2024-02-26T00:54:34;4.53;;;2.47;;
64543;SDS011;50936;51.660;5.616;2024-02-26T00:57:21;6.15;;;2.50;;
64543;SDS011;50936;51.660;5.616;2024-02-26T01:00:09;5.25;;;2.80;;
64543;SDS011;50936;51.660;5.616;2024-02-26T01:02:57;4.72;;;2.83;;
64543;SDS011;50936;51.660;5.616;2024-02-26T01:05:45;4.93;;;3.00;;
64543;SDS011;50936;51.660;5.616;2024-02-26T01:08:32;6.40;;;3.25;;
64543;SDS011;50936;51.660;5.616;2024-02-26T01:11:20;5.32;;;3.38;;
64543;SDS011;50936;51.660;5.616;2024-02-26T01:14:07;5.22;;;2.50;;
64543;SDS011;50936;51.660;5.616;2024-02-26T01:16:54;5.22;;;2.95;;
64543;SDS011;50936;51.660;5.616;2024-02-26T01:19:41;5.82;;;3.13;;
64543;SDS011;50936;51.660;5.616;2024-02-26T01:22:29;5.40;;;3.22;;
64543;SDS011;50936;51.660;5.616;2024-02-26T01:25:16;5.80;;;2.75;;
64543;SDS011;50936;51.660;5.616;2024-02-26T01:28:03;5.68;;;2.80;;
64543;SDS011;50936;51.660;5.616;2024-02-26T01:30:51;5.70;;;3.05;;
64543;SDS011;50936;51.660;5.616;2024-02-26T01:33:38;6.63;;;2.78;;
64543;SDS011;50936;51.660;5.616;2024-02-26T01:36:25;5.03;;;3.08;;
64543;SDS011;50936;51.660;5.616;2024-02-26T01:39:13;5.55;;;2.92;;
64543;SDS011;50936;51.660;5.616;2024-02-26T01:42:00;6.90;;;3.47;;
64543;SDS011;50936;51.660;5.616;2024-02-26T01:44:48;4.90;;;3.20;;
64543;SDS011;50936;51.660;5.616;2024-02-26T01:47:35;6.75;;;3.40;;
64543;SDS011;50936;51.660;5.616;2024-02-26T01:50:22;5.78;;;3.28;;
64543;SDS011;50936;51.660;5.616;2024-02-26T01:53:11;5.13;;;3.20;;
64543;SDS011;50936;51.660;5.616;2024-02-26T01:56:00;5.53;;;3.50;;
64543;SDS011;50936;51.660;5.616;2024-02-26T01:58:48;6.15;;;3.33;;
64543;SDS011;50936;51.660;5.616;2024-02-26T02:01:35;4.90;;;2.83;;
64543;SDS011;50936;51.660;5.616;2024-02-26T02:04:24;5.00;;;2.97;;
64543;SDS011;50936;51.660;5.616;2024-02-26T02:07:12;8.98;;;3.53;;
64543;SDS011;50936;51.660;5.616;2024-02-26T02:10:00;4.60;;;2.95;;
64543;SDS011;50936;51.660;5.616;2024-02-26T02:12:47;5.30;;;3.33;;
64543;SDS011;50936;51.660;5.616;2024-02-26T02:15:34;5.47;;;3.00;;
64543;SDS011;50936;51.660;5.616;2024-02-26T02:18:21;4.90;;;3.20;;
64543;SDS011;50936;51.660;5.616;2024-02-26T02:21:09;5.55;;;3.00;;
64543;SDS011;50936;51.660;5.616;2024-02-26T02:23:56;5.72;;;2.95;;
64543;SDS011;50936;51.660;5.616;2024-02-26T02:26:43;5.97;;;3.58;;
64543;SDS011;50936;51.660;5.616;2024-02-26T02:29:31;4.53;;;2.88;;
64543;SDS011;50936;51.660;5.616;2024-02-26T02:32:18;4.30;;;2.90;;
64543;SDS011;50936;51.660;5.616;2024-02-26T02:35:07;9.80;;;3.38;;
64543;SDS011;50936;51.660;5.616;2024-02-26T02:37:55;5.00;;;3.03;;
64543;SDS011;50936;51.660;5.616;2024-02-26T02:40:44;6.35;;;3.15;;
64543;SDS011;50936;51.660;5.616;2024-02-26T02:43:31;7.15;;;3.00;;
64543;SDS011;50936;51.660;5.616;2024-02-26T02:46:18;6.55;;;3.38;;
64543;SDS011;50936;51.660;5.616;2024-02-26T02:49:09;6.57;;;2.97;;
64543;SDS011;50936;51.660;5.616;2024-02-26T02:51:57;5.03;;;3.50;;
64543;SDS011;50936;51.660;5.616;2024-02-26T02:54:44;6.82;;;3.40;;
64543;SDS011;50936;51.660;5.616;2024-02-26T02:57:33;7.18;;;3.38;;
64543;SDS011;50936;51.660;5.616;2024-02-26T03:00:21;6.18;;;3.25;;
64543;SDS011;50936;51.660;5.616;2024-02-26T03:03:11;5.75;;;3.33;;
64543;SDS011;50936;51.660;5.616;2024-02-26T03:05:58;5.10;;;3.13;;
64543;SDS011;50936;51.660;5.616;2024-02-26T03:08:45;6.35;;;2.92;;
64543;SDS011;50936;51.660;5.616;2024-02-26T03:11:33;6.10;;;3.60;;
64543;SDS011;50936;51.660;5.616;2024-02-26T03:14:21;7.68;;;3.28;;
64543;SDS011;50936;51.660;5.616;2024-02-26T03:17:08;6.43;;;3.53;;
64543;SDS011;50936;51.660;5.616;2024-02-26T03:19:55;8.68;;;4.38;;
64543;SDS011;50936;51.660;5.616;2024-02-26T03:22:42;7.15;;;4.10;;
64543;SDS011;50936;51.660;5.616;2024-02-26T03:25:30;7.82;;;4.35;;
64543;SDS011;50936;51.660;5.616;2024-02-26T03:28:18;8.70;;;4.57;;
64543;SDS011;50936;51.660;5.616;2024-02-26T03:31:05;8.07;;;4.57;;
64543;SDS011;50936;51.660;5.616;2024-02-26T03:33:52;7.22;;;3.63;;
64543;SDS011;50936;51.660;5.616;2024-02-26T03:36:43;10.35;;;4.45;;
64543;SDS011;50936;51.660;5.616;2024-02-26T03:39:30;6.00;;;3.72;;
64543;SDS011;50936;51.660;5.616;2024-02-26T03:42:17;5.97;;;4.13;;
64543;SDS011;50936;51.660;5.616;2024-02-26T03:45:05;7.32;;;3.88;;
64543;SDS011;50936;51.660;5.616;2024-02-26T03:47:53;7.00;;;4.15;;
64543;SDS011;50936;51.660;5.616;2024-02-26T03:50:40;7.88;;;4.30;;
64543;SDS011;50936;51.660;5.616;2024-02-26T03:53:28;8.38;;;4.10;;
64543;SDS011;50936;51.660;5.616;2024-02-26T03:56:15;6.55;;;4.05;;
64543;SDS011;50936;51.660;5.616;2024-02-26T03:59:02;8.15;;;3.90;;
64543;SDS011;50936;51.660;5.616;2024-02-26T04:01:49;6.18;;;4.07;;
64543;SDS011;50936;51.660;5.616;2024-02-26T04:04:37;7.68;;;4.40;;
64543;SDS011;50936;51.660;5.616;2024-02-26T04:07:24;7.20;;;4.00;;
64543;SDS011;50936;51.660;5.616;2024-02-26T04:10:11;8.85;;;4.45;;
64543;SDS011;50936;51.660;5.616;2024-02-26T04:12:59;5.85;;;3.90;;
64543;SDS011;50936;51.660;5.616;2024-02-26T04:15:46;5.38;;;3.70;;
64543;SDS011;50936;51.660;5.616;2024-02-26T04:18:33;5.65;;;3.50;;
64543;SDS011;50936;51.660;5.616;2024-02-26T04:21:21;7.50;;;3.90;;
64543;SDS011;50936;51.660;5.616;2024-02-26T04:24:08;7.88;;;4.00;;
64543;SDS011;50936;51.660;5.616;2024-02-26T04:26:55;6.75;;;3.90;;
64543;SDS011;50936;51.660;5.616;2024-02-26T04:29:43;6.60;;;4.07;;
64543;SDS011;50936;51.660;5.616;2024-02-26T04:32:30;8.20;;;4.15;;
64543;SDS011;50936;51.660;5.616;2024-02-26T04:35:17;8.20;;;4.30;;
64543;SDS011;50936;51.660;5.616;2024-02-26T04:38:04;7.45;;;3.92;;
64543;SDS011;50936;51.660;5.616;2024-02-26T04:40:52;9.32;;;4.15;;
64543;SDS011;50936;51.660;5.616;2024-02-26T04:43:39;5.93;;;3.75;;
64543;SDS011;50936;51.660;5.616;2024-02-26T04:46:28;7.55;;;4.30;;
64543;SDS011;50936;51.660;5.616;2024-02-26T04:49:15;6.63;;;3.70;;
64543;SDS011;50936;51.660;5.616;2024-02-26T04:52:03;6.13;;;3.95;;
64543;SDS011;50936;51.660;5.616;2024-02-26T04:54:51;6.47;;;4.00;;
64543;SDS011;50936;51.660;5.616;2024-02-26T04:57:38;7.20;;;4.00;;
64543;SDS011;50936;51.660;5.616;2024-02-26T05:00:25;5.80;;;4.03;;
64543;SDS011;50936;51.660;5.616;2024-02-26T05:03:12;6.75;;;3.97;;
64543;SDS011;50936;51.660;5.616;2024-02-26T05:06:02;7.47;;;3.80;;
64543;SDS011;50936;51.660;5.616;2024-02-26T05:08:49;10.27;;;4.03;;
64543;SDS011;50936;51.660;5.616;2024-02-26T05:11:36;6.93;;;3.97;;
64543;SDS011;50936;51.660;5.616;2024-02-26T05:14:26;7.10;;;4.10;;
64543;SDS011;50936;51.660;5.616;2024-02-26T05:17:14;7.72;;;4.40;;
64543;SDS011;50936;51.660;5.616;2024-02-26T05:20:01;7.78;;;3.80;;
64543;SDS011;50936;51.660;5.616;2024-02-26T05:22:49;6.13;;;3.78;;
64543;SDS011;50936;51.660;5.616;2024-02-26T05:25:37;6.07;;;3.97;;
64543;SDS011;50936;51.660;5.616;2024-02-26T05:28:24;6.13;;;3.80;;
64543;SDS011;50936;51.660;5.616;2024-02-26T05:31:14;7.97;;;3.78;;
64543;SDS011;50936;51.660;5.616;2024-02-26T05:34:03;6.20;;;3.67;;
64543;SDS011;50936;51.660;5.616;2024-02-26T05:36:50;5.57;;;3.47;;
64543;SDS011;50936;51.660;5.616;2024-02-26T05:39:38;6.75;;;3.83;;
64543;SDS011;50936;51.660;5.616;2024-02-26T05:42:25;8.40;;;4.03;;
64543;SDS011;50936;51.660;5.616;2024-02-26T05:45:12;7.68;;;4.07;;
64543;SDS011;50936;51.660;5.616;2024-02-26T05:48:00;6.85;;;4.03;;
64543;SDS011;50936;51.660;5.616;2024-02-26T05:50:47;7.47;;;4.70;;
64543;SDS011;50936;51.660;5.616;2024-02-26T05:53:35;8.77;;;4.10;;
64543;SDS011;50936;51.660;5.616;2024-02-26T05:56:22;7.20;;;4.60;;
64543;SDS011;50936;51.660;5.616;2024-02-26T05:59:09;10.65;;;4.90;;
64543;SDS011;50936;51.660;5.616;2024-02-26T06:01:56;7.70;;;5.35;;
64543;SDS011;50936;51.660;5.616;2024-02-26T06:04:44;9.15;;;5.00;;
64543;SDS011;50936;51.660;5.616;2024-02-26T06:07:31;11.05;;;5.55;;
64543;SDS011;50936;51.660;5.616;2024-02-26T06:10:18;9.07;;;4.95;;
64543;SDS011;50936;51.660;5.616;2024-02-26T06:13:08;8.68;;;5.95;;
64543;SDS011;50936;51.660;5.616;2024-02-26T06:15:55;12.70;;;5.75;;
64543;SDS011;50936;51.660;5.616;2024-02-26T06:18:42;8.40;;;5.50;;
64543;SDS011;50936;51.660;5.616;2024-02-26T06:21:29;8.23;;;5.10;;
64543;SDS011;50936;51.660;5.616;2024-02-26T06:24:17;8.20;;;5.00;;
64543;SDS011;50936;51.660;5.616;2024-02-26T06:27:04;9.27;;;5.00;;
64543;SDS011;50936;51.660;5.616;2024-02-26T06:29:52;10.10;;;5.68;;
64543;SDS011;50936;51.660;5.616;2024-02-26T06:32:43;10.13;;;4.60;;
64543;SDS011;50936;51.660;5.616;2024-02-26T06:35:30;8.70;;;5.15;;
64543;SDS011;50936;51.660;5.616;2024-02-26T06:38:18;7.32;;;4.15;;
64543;SDS011;50936;51.660;5.616;2024-02-26T06:41:06;8.27;;;5.05;;
64543;SDS011;50936;51.660;5.616;2024-02-26T06:43:53;8.63;;;5.20;;
64543;SDS011;50936;51.660;5.616;2024-02-26T06:46:41;8.05;;;5.22;;
64543;SDS011;50936;51.660;5.616;2024-02-26T06:49:28;7.47;;;4.45;;
64543;SDS011;50936;51.660;5.616;2024-02-26T06:52:16;10.23;;;5.15;;
64543;SDS011;50936;51.660;5.616;2024-02-26T06:55:03;8.13;;;5.15;;
64543;SDS011;50936;51.660;5.616;2024-02-26T06:57:51;8.15;;;4.72;;
64543;SDS011;50936;51.660;5.616;2024-02-26T07:00:39;8.68;;;5.03;;
64543;SDS011;50936;51.660;5.616;2024-02-26T07:03:26;8.13;;;5.30;;
64543;SDS011;50936;51.660;5.616;2024-02-26T07:06:14;9.90;;;5.45;;
64543;SDS011;50936;51.660;5.616;2024-02-26T07:09:01;9.70;;;5.25;;
64543;SDS011;50936;51.660;5.616;2024-02-26T07:11:48;8.50;;;5.47;;
64543;SDS011;50936;51.660;5.616;2024-02-26T07:14:36;9.45;;;4.93;;
64543;SDS011;50936;51.660;5.616;2024-02-26T07:17:24;8.38;;;4.97;;
64543;SDS011;50936;51.660;5.616;2024-02-26T07:20:12;8.95;;;5.20;;
64543;SDS011;50936;51.660;5.616;2024-02-26T07:23:00;7.43;;;4.72;;
64543;SDS011;50936;51.660;5.616;2024-02-26T07:25:47;10.15;;;5.32;;
64543;SDS011;50936;51.660;5.616;2024-02-26T07:28:37;9.40;;;5.60;;
64543;SDS011;50936;51.660;5.616;2024-02-26T07:31:24;9.93;;;5.63;;
64543;SDS011;50936;51.660;5.616;2024-02-26T07:34:12;8.63;;;4.97;;
64543;SDS011;50936;51.660;5.616;2024-02-26T07:37:00;8.70;;;5.50;;
64543;SDS011;50936;51.660;5.616;2024-02-26T07:39:47;8.82;;;5.25;;
64543;SDS011;50936;51.660;5.616;2024-02-26T07:42:34;9.15;;;5.07;;
64543;SDS011;50936;51.660;5.616;2024-02-26T07:45:22;9.48;;;5.47;;
64543;SDS011;50936;51.660;5.616;2024-02-26T07:48:09;7.95;;;4.97;;
64543;SDS011;50936;51.660;5.616;2024-02-26T07:50:56;8.07;;;4.95;;
64543;SDS011;50936;51.660;5.616;2024-02-26T07:53:46;8.75;;;5.40;;
64543;SDS011;50936;51.660;5.616;2024-02-26T07:56:33;11.90;;;5.30;;
64543;SDS011;50936;51.660;5.616;2024-02-26T07:59:20;9.73;;;5.65;;
64543;SDS011;50936;51.660;5.616;2024-02-26T08:02:07;9.32;;;5.38;;
64543;SDS011;50936;51.660;5.616;2024-02-26T08:04:55;9.90;;;5.38;;
64543;SDS011;50936;51.660;5.616;2024-02-26T08:07:42;10.60;;;5.60;;
64543;SDS011;50936;51.660;5.616;2024-02-26T08:10:29;8.80;;;5.32;;
64543;SDS011;50936;51.660;5.616;2024-02-26T08:13:19;10.98;;;5.30;;
64543;SDS011;50936;51.660;5.616;2024-02-26T08:16:06;9.05;;;5.40;;
64543;SDS011;50936;51.660;5.616;2024-02-26T08:18:53;11.15;;;6.13;;
64543;SDS011;50936;51.660;5.616;2024-02-26T08:21:41;11.25;;;5.53;;
64543;SDS011;50936;51.660;5.616;2024-02-26T08:24:28;8.38;;;5.55;;
64543;SDS011;50936;51.660;5.616;2024-02-26T08:27:16;8.77;;;5.20;;
64543;SDS011;50936;51.660;5.616;2024-02-26T08:30:03;10.27;;;5.57;;
64543;SDS011;50936;51.660;5.616;2024-02-26T08:32:51;8.65;;;5.20;;
64543;SDS011;50936;51.660;5.616;2024-02-26T08:35:39;9.45;;;5.55;;
64543;SDS011;50936;51.660;5.616;2024-02-26T08:38:26;9.95;;;6.15;;
64543;SDS011;50936;51.660;5.616;2024-02-26T08:41:14;9.48;;;5.63;;
64543;SDS011;50936;51.660;5.616;2024-02-26T08:44:01;9.05;;;5.53;;
64543;SDS011;50936;51.660;5.616;2024-02-26T08:46:48;8.70;;;5.45;;
64543;SDS011;50936;51.660;5.616;2024-02-26T08:49:41;9.98;;;5.72;;
64543;SDS011;50936;51.660;5.616;2024-02-26T08:52:31;10.85;;;6.45;;
64543;SDS011;50936;51.660;5.616;2024-02-26T08:55:18;9.45;;;6.10;;
64543;SDS011;50936;51.660;5.616;2024-02-26T08:58:05;10.52;;;6.07;;
64543;SDS011;50936;51.660;5.616;2024-02-26T09:00:53;12.07;;;6.70;;
64543;SDS011;50936;51.660;5.616;2024-02-26T09:03:40;13.25;;;7.38;;
64543;SDS011;50936;51.660;5.616;2024-02-26T09:06:28;10.13;;;6.55;;
64543;SDS011;50936;51.660;5.616;2024-02-26T09:09:16;12.60;;;7.28;;
64543;SDS011;50936;51.660;5.616;2024-02-26T09:12:03;10.85;;;6.75;;
64543;SDS011;50936;51.660;5.616;2024-02-26T09:14:51;12.27;;;7.22;;
64543;SDS011;50936;51.660;5.616;2024-02-26T09:17:39;12.52;;;8.30;;
64543;SDS011;50936;51.660;5.616;2024-02-26T09:20:26;15.02;;;7.57;;
64543;SDS011;50936;51.660;5.616;2024-02-26T09:23:13;12.95;;;7.10;;
64543;SDS011;50936;51.660;5.616;2024-02-26T09:26:01;11.90;;;6.68;;
64543;SDS011;50936;51.660;5.616;2024-02-26T09:28:48;12.95;;;7.55;;
64543;SDS011;50936;51.660;5.616;2024-02-26T09:31:35;14.43;;;8.20;;
64543;SDS011;50936;51.660;5.616;2024-02-26T09:34:22;13.93;;;7.22;;
64543;SDS011;50936;51.660;5.616;2024-02-26T09:37:10;19.92;;;8.43;;
64543;SDS011;50936;51.660;5.616;2024-02-26T09:40:07;14.20;;;8.15;;
64543;SDS011;50936;51.660;5.616;2024-02-26T09:42:59;13.57;;;8.05;;
64543;SDS011;50936;51.660;5.616;2024-02-26T09:45:49;14.95;;;8.38;;
64543;SDS011;50936;51.660;5.616;2024-02-26T09:48:38;18.85;;;9.68;;
64543;SDS011;50936;51.660;5.616;2024-02-26T09:51:29;15.63;;;8.80;;
64543;SDS011;50936;51.660;5.616;2024-02-26T09:54:17;16.08;;;8.88;;
64543;SDS011;50936;51.660;5.616;2024-02-26T09:57:04;16.92;;;9.55;;
64543;SDS011;50936;51.660;5.616;2024-02-26T10:00:02;17.95;;;9.30;;
64543;SDS011;50936;51.660;5.616;2024-02-26T10:02:53;16.00;;;9.07;;
64543;SDS011;50936;51.660;5.616;2024-02-26T10:05:44;14.60;;;8.70;;
64543;SDS011;50936;51.660;5.616;2024-02-26T10:08:32;18.00;;;10.25;;
64543;SDS011;50936;51.660;5.616;2024-02-26T10:11:20;17.77;;;9.57;;
64543;SDS011;50936;51.660;5.616;2024-02-26T10:14:09;19.05;;;9.63;;
64543;SDS011;50936;51.660;5.616;2024-02-26T10:16:56;16.02;;;9.32;;
64543;SDS011;50936;51.660;5.616;2024-02-26T10:19:44;19.77;;;9.82;;
64543;SDS011;50936;51.660;5.616;2024-02-26T10:22:32;17.40;;;9.60;;
64543;SDS011;50936;51.660;5.616;2024-02-26T10:25:19;19.27;;;9.40;;
64543;SDS011;50936;51.660;5.616;2024-02-26T10:28:06;18.73;;;9.70;;
64543;SDS011;50936;51.660;5.616;2024-02-26T10:30:54;17.25;;;8.40;;
64543;SDS011;50936;51.660;5.616;2024-02-26T10:33:42;19.75;;;9.82;;
64543;SDS011;50936;51.660;5.616;2024-02-26T10:36:33;19.45;;;9.57;;
64543;SDS011;50936;51.660;5.616;2024-02-26T10:39:36;17.77;;;9.15;;
64543;SDS011;50936;51.660;5.616;2024-02-26T10:42:25;21.48;;;10.25;;
64543;SDS011;50936;51.660;5.616;2024-02-26T10:45:13;18.67;;;9.35;;
64543;SDS011;50936;51.660;5.616;2024-02-26T10:48:00;16.70;;;8.80;;
64543;SDS011;50936;51.660;5.616;2024-02-26T10:50:48;17.88;;;8.73;;
64543;SDS011;50936;51.660;5.616;2024-02-26T10:53:37;20.95;;;9.23;;
64543;SDS011;50936;51.660;5.616;2024-02-26T10:56:28;15.43;;;8.57;;
64543;SDS011;50936;51.660;5.616;2024-02-26T10:59:16;20.25;;;10.07;;
64543;SDS011;50936;51.660;5.616;2024-02-26T11:02:08;19.38;;;9.77;;
64543;SDS011;50936;51.660;5.616;2024-02-26T11:04:57;21.10;;;9.05;;
64543;SDS011;50936;51.660;5.616;2024-02-26T11:07:46;18.83;;;8.48;;
64543;SDS011;50936;51.660;5.616;2024-02-26T11:10:36;19.92;;;9.30;;
64543;SDS011;50936;51.660;5.616;2024-02-26T11:13:26;20.83;;;10.00;;
64543;SDS011;50936;51.660;5.616;2024-02-26T11:16:20;20.40;;;10.52;;
64543;SDS011;50936;51.660;5.616;2024-02-26T11:19:09;23.15;;;10.85;;
64543;SDS011;50936;51.660;5.616;2024-02-26T11:21:59;21.33;;;10.10;;
64543;SDS011;50936;51.660;5.616;2024-02-26T11:25:01;23.45;;;10.85;;
64543;SDS011;50936;51.660;5.616;2024-02-26T11:27:51;23.90;;;10.55;;
64543;SDS011;50936;51.660;5.616;2024-02-26T11:30:47;21.13;;;9.85;;
64543;SDS011;50936;51.660;5.616;2024-02-26T11:33:36;20.95;;;10.30;;
64543;SDS011;50936;51.660;5.616;2024-02-26T11:36:24;22.00;;;9.90;;
64543;SDS011;50936;51.660;5.616;2024-02-26T11:39:11;24.42;;;10.82;;
64543;SDS011;50936;51.660;5.616;2024-02-26T11:42:05;22.40;;;10.43;;
64543;SDS011;50936;51.660;5.616;2024-02-26T11:44:55;20.65;;;9.50;;
64543;SDS011;50936;51.660;5.616;2024-02-26T11:47:55;26.20;;;11.07;;
64543;SDS011;50936;51.660;5.616;2024-02-26T11:50:56;23.45;;;10.10;;
64543;SDS011;50936;51.660;5.616;2024-02-26T11:53:48;23.23;;;10.02;;
64543;SDS011;50936;51.660;5.616;2024-02-26T11:56:40;25.92;;;11.77;;
64543;SDS011;50936;51.660;5.616;2024-02-26T11:59:39;21.48;;;11.25;;
64543;SDS011;50936;51.660;5.616;2024-02-26T12:02:37;23.92;;;11.82;;
64543;SDS011;50936;51.660;5.616;2024-02-26T12:05:31;22.88;;;10.40;;
64543;SDS011;50936;51.660;5.616;2024-02-26T12:08:20;23.85;;;11.57;;
64543;SDS011;50936;51.660;5.616;2024-02-26T12:11:18;24.90;;;11.85;;
64543;SDS011;50936;51.660;5.616;2024-02-26T12:14:07;21.48;;;10.70;;
64543;SDS011;50936;51.660;5.616;2024-02-26T12:16:56;22.45;;;11.02;;
64543;SDS011;50936;51.660;5.616;2024-02-26T12:19:45;22.38;;;10.80;;
64543;SDS011;50936;51.660;5.616;2024-02-26T12:22:32;25.02;;;11.60;;
64543;SDS011;50936;51.660;5.616;2024-02-26T12:25:22;22.33;;;10.90;;
64543;SDS011;50936;51.660;5.616;2024-02-26T12:28:13;25.15;;;10.80;;
64543;SDS011;50936;51.660;5.616;2024-02-26T12:31:01;22.52;;;9.85;;
64543;SDS011;50936;51.660;5.616;2024-02-26T12:33:49;23.05;;;11.25;;
64543;SDS011;50936;51.660;5.616;2024-02-26T12:36:37;23.63;;;12.18;;
64543;SDS011;50936;51.660;5.616;2024-02-26T12:39:27;22.70;;;10.55;;
64543;SDS011;50936;51.660;5.616;2024-02-26T12:42:15;20.63;;;10.60;;
64543;SDS011;50936;51.660;5.616;2024-02-26T12:45:02;20.40;;;9.70;;
64543;SDS011;50936;51.660;5.616;2024-02-26T12:47:55;20.58;;;10.50;;
64543;SDS011;50936;51.660;5.616;2024-02-26T12:50:47;21.40;;;9.40;;
64543;SDS011;50936;51.660;5.616;2024-02-26T12:53:34;20.30;;;9.90;;
64543;SDS011;50936;51.660;5.616;2024-02-26T12:56:22;20.38;;;9.10;;
64543;SDS011;50936;51.660;5.616;2024-02-26T12:59:10;18.40;;;9.13;;
64543;SDS011;50936;51.660;5.616;2024-02-26T13:01:57;18.85;;;8.90;;
64543;SDS011;50936;51.660;5.616;2024-02-26T13:04:45;18.88;;;8.80;;
64543;SDS011;50936;51.660;5.616;2024-02-26T13:07:33;15.65;;;8.00;;
64543;SDS011;50936;51.660;5.616;2024-02-26T13:10:27;18.98;;;8.77;;
64543;SDS011;50936;51.660;5.616;2024-02-26T13:13:14;17.48;;;8.38;;
64543;SDS011;50936;51.660;5.616;2024-02-26T13:16:05;16.08;;;7.35;;
64543;SDS011;50936;51.660;5.616;2024-02-26T13:18:55;17.00;;;7.28;;
64543;SDS011;50936;51.660;5.616;2024-02-26T13:21:45;16.20;;;7.32;;
64543;SDS011;50936;51.660;5.616;2024-02-26T13:24:33;13.95;;;7.50;;
64543;SDS011;50936;51.660;5.616;2024-02-26T13:27:22;15.50;;;7.57;;
64543;SDS011;50936;51.660;5.616;2024-02-26T13:30:11;13.40;;;7.40;;
64543;SDS011;50936;51.660;5.616;2024-02-26T13:33:07;15.02;;;6.90;;
64543;SDS011;50936;51.660;5.616;2024-02-26T13:36:00;16.20;;;7.63;;
64543;SDS011;50936;51.660;5.616;2024-02-26T13:38:51;14.65;;;6.65;;
64543;SDS011;50936;51.660;5.616;2024-02-26T13:41:41;13.53;;;7.00;;
64543;SDS011;50936;51.660;5.616;2024-02-26T13:44:30;11.90;;;6.13;;
64543;SDS011;50936;51.660;5.616;2024-02-26T13:47:18;13.00;;;6.55;;
64543;SDS011;50936;51.660;5.616;2024-02-26T13:50:05;14.95;;;5.80;;
64543;SDS011;50936;51.660;5.616;2024-02-26T13:52:53;15.30;;;6.38;;
64543;SDS011;50936;51.660;5.616;2024-02-26T13:55:43;13.13;;;6.72;;
64543;SDS011;50936;51.660;5.616;2024-02-26T13:58:31;16.35;;;7.20;;
64543;SDS011;50936;51.660;5.616;2024-02-26T14:01:18;11.60;;;6.43;;
64543;SDS011;50936;51.660;5.616;2024-02-26T14:04:05;14.02;;;7.18;;
64543;SDS011;50936;51.660;5.616;2024-02-26T14:06:56;15.32;;;6.38;;
64543;SDS011;50936;51.660;5.616;2024-02-26T14:09:43;12.65;;;6.57;;
64543;SDS011;50936;51.660;5.616;2024-02-26T14:12:36;13.23;;;6.65;;
64543;SDS011;50936;51.660;5.616;2024-02-26T14:15:23;15.00;;;6.85;;
64543;SDS011;50936;51.660;5.616;2024-02-26T14:18:11;12.90;;;6.82;;
64543;SDS011;50936;51.660;5.616;2024-02-26T14:20:59;13.38;;;6.78;;
64543;SDS011;50936;51.660;5.616;2024-02-26T14:23:46;14.70;;;6.53;;
64543;SDS011;50936;51.660;5.616;2024-02-26T14:26:34;16.10;;;6.80;;
64543;SDS011;50936;51.660;5.616;2024-02-26T14:29:22;12.52;;;6.90;;
64543;SDS011;50936;51.660;5.616;2024-02-26T14:32:09;14.68;;;7.10;;
64543;SDS011;50936;51.660;5.616;2024-02-26T14:34:57;15.07;;;6.50;;
64543;SDS011;50936;51.660;5.616;2024-02-26T14:37:45;13.75;;;6.72;;
64543;SDS011;50936;51.660;5.616;2024-02-26T14:40:34;13.13;;;7.45;;
64543;SDS011;50936;51.660;5.616;2024-02-26T14:43:22;14.50;;;6.80;;
64543;SDS011;50936;51.660;5.616;2024-02-26T14:46:09;12.43;;;6.43;;
64543;SDS011;50936;51.660;5.616;2024-02-26T14:48:56;13.70;;;6.88;;
64543;SDS011;50936;51.660;5.616;2024-02-26T14:51:45;13.70;;;6.85;;
64543;SDS011;50936;51.660;5.616;2024-02-26T14:54:32;15.02;;;7.10;;
64543;SDS011;50936;51.660;5.616;2024-02-26T14:57:24;15.38;;;7.75;;
64543;SDS011;50936;51.660;5.616;2024-02-26T15:00:12;13.77;;;6.45;;
64543;SDS011;50936;51.660;5.616;2024-02-26T15:02:59;16.55;;;8.20;;
64543;SDS011;50936;51.660;5.616;2024-02-26T15:05:47;15.77;;;8.07;;
64543;SDS011;50936;51.660;5.616;2024-02-26T15:08:34;13.40;;;6.85;;
64543;SDS011;50936;51.660;5.616;2024-02-26T15:11:21;14.02;;;7.25;;
64543;SDS011;50936;51.660;5.616;2024-02-26T15:14:09;15.35;;;6.85;;
64543;SDS011;50936;51.660;5.616;2024-02-26T15:16:57;14.38;;;7.40;;
64543;SDS011;50936;51.660;5.616;2024-02-26T15:19:45;14.48;;;6.90;;
64543;SDS011;50936;51.660;5.616;2024-02-26T15:22:32;12.93;;;6.70;;
64543;SDS011;50936;51.660;5.616;2024-02-26T15:25:20;14.88;;;6.55;;
64543;SDS011;50936;51.660;5.616;2024-02-26T15:28:08;14.68;;;7.20;;
64543;SDS011;50936;51.660;5.616;2024-02-26T15:31:00;14.70;;;6.65;;
64543;SDS011;50936;51.660;5.616;2024-02-26T15:33:48;14.85;;;7.00;;
64543;SDS011;50936;51.660;5.616;2024-02-26T15:36:35;11.88;;;5.80;;
64543;SDS011;50936;51.660;5.616;2024-02-26T15:39:22;11.93;;;6.32;;
64543;SDS011;50936;51.660;5.616;2024-02-26T15:42:10;13.13;;;6.47;;
64543;SDS011;50936;51.660;5.616;2024-02-26T15:44:58;15.43;;;6.35;;
64543;SDS011;50936;51.660;5.616;2024-02-26T15:47:46;13.27;;;6.78;;
64543;SDS011;50936;51.660;5.616;2024-02-26T15:50:34;12.40;;;6.57;;
64543;SDS011;50936;51.660;5.616;2024-02-26T15:53:21;14.48;;;6.93;;
64543;SDS011;50936;51.660;5.616;2024-02-26T15:56:09;13.32;;;6.30;;
64543;SDS011;50936;51.660;5.616;2024-02-26T15:58:56;14.93;;;6.80;;
64543;SDS011;50936;51.660;5.616;2024-02-26T16:01:44;15.07;;;6.28;;
64543;SDS011;50936;51.660;5.616;2024-02-26T16:04:31;13.00;;;6.38;;
64543;SDS011;50936;51.660;5.616;2024-02-26T16:07:20;12.25;;;6.32;;
64543;SDS011;50936;51.660;5.616;2024-02-26T16:10:21;11.23;;;5.63;;
64543;SDS011;50936;51.660;5.616;2024-02-26T16:13:08;13.27;;;6.10;;
64543;SDS011;50936;51.660;5.616;2024-02-26T16:15:58;12.02;;;6.35;;
64543;SDS011;50936;51.660;5.616;2024-02-26T16:18:54;12.35;;;6.32;;
64543;SDS011;50936;51.660;5.616;2024-02-26T16:21:53;14.55;;;6.25;;
64543;SDS011;50936;51.660;5.616;2024-02-26T16:24:41;14.43;;;6.53;;
64543;SDS011;50936;51.660;5.616;2024-02-26T16:27:29;11.23;;;5.68;;
64543;SDS011;50936;51.660;5.616;2024-02-26T16:30:17;12.55;;;6.18;;
64543;SDS011;50936;51.660;5.616;2024-02-26T16:33:04;12.82;;;6.03;;
64543;SDS011;50936;51.660;5.616;2024-02-26T16:35:52;13.32;;;6.32;;
64543;SDS011;50936;51.660;5.616;2024-02-26T16:38:40;11.38;;;5.55;;
64543;SDS011;50936;51.660;5.616;2024-02-26T16:41:28;12.57;;;6.05;;
64543;SDS011;50936;51.660;5.616;2024-02-26T16:44:15;15.05;;;6.38;;
64543;SDS011;50936;51.660;5.616;2024-02-26T16:47:05;12.52;;;6.10;;